Ricardo Cortés

Olheiro-Chefe - Valencia
3 Dez 2028
Domingo
Processo

Personalidade

Adaptabilidade (15) Ambição (1) Controvérsia (5) Lealdade (7) Pressão (10) Profissionalismo (8) Espírito Esportivo (1) Temperamento (9)

Perfil

Estilo de Treinamento Democrático
Licença Continental Pro
Determinação 13
Gestão de Pessoas 6
Motivação 12
Disciplina 11
Satisfação no Trabalho
51%
Fadiga
0%
Função Olheiro-Chefe
Salário 30.2K p/s
Contrato 14.03.2030

Desempenho

Comportamento Bom
Eficácia do Treinamento
26%
Desenvolvimento do Jogador
40%
Prevenção de Lesões
70%
Implementação Tática
30%

Eventos Recentes

Participou de uma reunião de recrutamento agora
Participou de uma reunião de recrutamento agora
Participou de uma reunião de recrutamento agora
Recomendou um alvo de transferência agora
Avaliou um jogador agora
Avaliou um jogador agora
Observou uma partida agora
Observou uma partida agora

Monitorando agora

209
Jogador Clube Status Habilidade Confiança Observado Última observação Último voto
Iñaki Larthirigoyen San Telmo Ativo 126 / 121 40% 3 02.12.2028 -
Gustavo Neves Bragantino Ativo 134 / 131 40% 1 02.12.2028 -
Facundo Gulli San Lorenzo Ativo 129 / 127 40% 3 01.12.2028 -
Jeremías Merlo Gimnasia La Plata Ativo 123 / 124 40% 1 01.12.2028 -
Désiré Doué Stade Brestois Ativo 167 / 169 40% 1 01.12.2028 -
Facundo Buonanotte Bristol City Ativo 150 / 154 40% 4 28.11.2028 -
Luis Ángel Díaz Independiente Rivadavia Ativo 121 / 120 40% 3 28.11.2028 -
Quinn Sullivan Philadelphia Union Ativo 127 / 126 40% 1 27.11.2028 -
Julio Enciso Aston Villa Ativo 159 / 156 40% 1 27.11.2028 -
Lautaro Vargas Unión de Santa Fe Ativo 127 / 125 40% 3 24.11.2028 -
Ramiro Hernandes Belgrano Ativo 126 / 124 40% 4 24.11.2028 -
Lisandro Piñero Banfield Ativo 127 / 130 40% 1 24.11.2028 -
Lucas Assadi AIK Ativo 136 / 134 40% 2 23.11.2028 -
Leandro Mamut Gimnasia La Plata Ativo 125 / 126 40% 2 23.11.2028 -
Savinho Tottenham Ativo 166 / 163 40% 1 23.11.2028 -
Jonás Luna Wanderers Ativo 121 / 123 40% 3 22.11.2028 -
Nicolás Dubersarsky Austin FC Ativo 136 / 128 40% 3 22.11.2028 -
Lucas Gómez Argentinos Juniors Ativo 123 / 122 40% 1 22.11.2028 -
Victor Hernandez Santa Fe Ativo 121 / 126 40% 3 21.11.2028 -
Tomás O'Connor Gimnasia y Esgrima Ativo 126 / 128 40% 1 20.11.2028 -
Ignacio Perruzzi San Lorenzo Ativo 130 / 130 40% 7 18.11.2028 -
Endrick Boca Juniors Ativo 157 / 162 40% 4 18.11.2028 -
Juan Velázquez Belgrano Ativo 128 / 128 40% 2 18.11.2028 -
Agustín Ojeda Seattle Sounders Ativo 134 / 122 40% 2 17.11.2028 -
Elián Giménez Sarmiento Ativo 127 / 127 40% 1 16.11.2028 -
Jonathan De Irastorza Independiente Ativo 134 / 130 40% 1 13.11.2028 -
Idan Toklomati Charlotte Football Club Ativo 129 / 119 40% 1 13.11.2028 -
Mateo Seoane Gimnasia La Plata Ativo 123 / 126 40% 1 10.11.2028 -
Mateo Silvetti Seattle Sounders Ativo 127 / 133 40% 1 07.11.2028 -
Joaquín Mosqueira Talleres Ativo 127 / 127 40% 1 06.11.2028 -
Ryan Kavuma-McQueen Accrington Stanley Ativo 120 / 127 40% 2 31.07.2028 -
Chupete Málaga Rejeitado 139 / 139 79% 2 31.07.2028 -
Tyreece Campbell Charlton Athletic Ativo 128 / 129 40% 1 31.07.2028 -
William Osula Wrexham Ativo 139 / 142 40% 1 27.07.2028 -
Leo Castledine Middlesbrough Ativo 138 / 141 40% 1 27.07.2028 -
Miguel Rodríguez Alavés Ativo 145 / 142 40% 1 27.07.2028 -
David Mella Deportivo La Coruña Ativo 140 / 147 79% 1 24.07.2028 Aprovar
Thiago Brentford Ativo 156 / 155 40% 3 11.07.2028 -
Fábio Carvalho Brentford Ativo 153 / 151 40% 2 11.07.2028 -
Arnaut Danjuma Deportivo La Coruña Perdido 142 / 142 79% 1 10.07.2028 -
Radek Vítek Middlesbrough Ativo 149 / 149 40% 2 05.07.2028 -
Dylan Moody Cheltenham Town Ativo 119 / 132 40% 1 05.07.2028 -
Alexei Rojas Fedorushchenko Barrow AFC Ativo 129 / 127 40% 13 04.07.2028 -
Cristian Santander Barranquilla Ativo 118 / 121 40% 4 04.07.2028 -
Shahriar Rezaeian Siah Jamegan Ativo 120 / 124 40% 2 04.07.2028 -
Nazareno Durán Huracán Ativo 123 / 119 40% 3 26.06.2028 -
Alejandro Iturbe Elche Perdido 146 / 138 40% 2 26.06.2028 -
Matteo Bignetti Sturm Graz Ativo 127 / 132 40% 7 25.06.2028 -
Robin Risser Monaco Ativo 156 / 156 40% 9 24.06.2028 -
Ludovico Del Sorbo Sorrento Ativo 127 / 124 40% 6 23.06.2028 -
Alexey Ploschadny Noah Ativo 126 / 123 40% 1 23.06.2028 -
Sam Proctor Salford City Ativo 123 / 127 40% 5 20.06.2028 -
Rubén Sobrino Cultural Leonesa Perdido 117 / 122 79% 1 03.06.2028 -
Guillaume Restes Toulouse FC Perdido 149 / 150 40% 9 01.06.2028 -
Denys Tvardovskyi Prykarpattia Ativo 119 / 122 40% 2 01.06.2028 -
Nicolas Jackson Aston Villa Ativo 153 / 154 40% 12 31.05.2028 -
Gabe Forsyth Colchester United Ativo 112 / 114 40% 1 31.05.2028 -
Ibrahim Fullah Charlton Athletic Ativo 124 / 129 40% 1 31.05.2028 -
Honest Ahanor Atalanta Ativo 140 / 144 40% 1 31.05.2028 -
Sergio Barlocco Trento Ativo 119 / 122 40% 4 30.05.2028 -
Mate Modric Zadar Ativo 122 / 124 40% 4 27.05.2028 -
Alejandro Iturbe Elche Perdido 140 / 136 40% 5 23.05.2028 -
Radek Vítek Middlesbrough Perdido 149 / 151 40% 2 22.05.2028 -
Joe Whitworth Wigan Athletic Ativo 127 / 121 40% 4 21.05.2028 -
Pavlo Isenko Universitatea Craiova Ativo 127 / 126 40% 4 20.05.2028 -
Sławomir Abramowicz Jagiellonia Ativo 143 / 138 40% 8 20.05.2028 -
Adam Hrdina Zbrojovka Brno Ativo 114 / 120 40% 1 19.05.2028 -
Xavier Dziekoński Slask Ativo 127 / 140 40% 5 12.05.2028 -
Antonio Gomis Vizela Ativo 136 / 135 40% 3 06.05.2028 -
Josh Keeley Luton Town Ativo 136 / 141 40% 6 01.05.2028 -
Victor Palacios Sporting CP Ativo 145 / 146 40% 1 25.04.2028 -
Ander Astralaga Newcastle United Ativo 141 / 141 40% 3 21.04.2028 -
Filip Marschall Stevenage Ativo 125 / 123 40% 1 13.04.2028 -
Rémi Himbert AC Ajaccio Ativo 113 / 127 40% 1 17.01.2028 -
Liel Abada Inter Miami CF Ativo 145 / 138 40% 1 12.01.2028 -
Héctor Fort Real Sociedad Ativo 144 / 143 40% 1 06.01.2028 -
Pau Cubarsí Real Sociedad Ativo 158 / 171 40% 1 06.01.2028 -
Jesus Ferreira Seattle Sounders Ativo 139 / 126 40% 1 23.08.2027 -
Ez Abde Betis Ativo 159 / 157 40% 6 11.08.2027 -
Peque Real Sociedad Ativo 141 / 146 40% 2 10.08.2027 -
Rasmus Højlund Espanyol Ativo 154 / 159 40% 1 10.08.2027 -
Pau Víctor Braga Ativo 143 / 143 40% 6 28.07.2027 -
Maroan Sannadi Athletic Bilbao Ativo 142 / 138 40% 4 28.07.2027 -
Joe Gelhardt Hull City Ativo 137 / 138 40% 4 27.07.2027 -
Yousef Salech Cardiff City Ativo 129 / 128 40% 3 05.07.2027 -
Roberto Fernández Braga Ativo 141 / 144 40% 5 14.06.2027 -
Andrés Martín Racing Santander Ativo 140 / 136 40% 5 14.06.2027 -
Riley Owen Stevenage Ativo 102 / 111 40% 1 06.06.2027 -
Jonathan Dubasin Osasuna Ativo 140 / 139 40% 7 30.05.2027 -
Mohamed-Ali Cho Hull City Ativo 138 / 139 40% 2 30.05.2027 -
Johnny Cardoso Atlético Madrid Ativo 152 / 152 40% 6 28.05.2027 -
James Garner Everton Ativo 151 / 147 40% 3 28.05.2027 -
Isaac Romero Sevilla Ativo 147 / 141 40% 7 28.05.2027 -
Ilaix Moriba Celta Ativo 152 / 148 40% 3 28.05.2027 -
Boubacar Kamara Aston Villa Ativo 163 / 165 40% 5 25.05.2027 -
Jesús Areso Athletic Bilbao Ativo 146 / 140 40% 5 25.05.2027 -
Omar El Hilali Espanyol Ativo 148 / 152 40% 9 25.05.2027 Observar
Ricardo Pepi Mallorca Ativo 145 / 147 40% 2 25.05.2027 -
Tyrese Campbell Sheffield United Ativo 126 / 123 40% 1 25.05.2027 -
Mats Wieffer Brighton Ativo 150 / 148 40% 5 21.05.2027 -
Florentino Luís Ipswich Town Ativo 139 / 140 40% 3 20.05.2027 -
Aune Heggebø West Bromwich Albion Ativo 130 / 125 40% 1 18.05.2027 -
Jarrad Branthwaite Everton Ativo 156 / 156 40% 4 15.05.2027 -
Troy Parrott Betis Ativo 132 / 141 40% 5 10.05.2027 -
Giacomo Raspadori Atalanta Ativo 149 / 146 40% 5 07.05.2027 -
Manu Koné AS Roma Ativo 164 / 164 40% 7 05.05.2027 Observar
Alex Scott Bournemouth Ativo 147 / 148 40% 3 05.05.2027 -
Pedro Porro Tottenham Ativo 151 / 147 40% 4 04.05.2027 -
Óscar Mingueza Crystal Palace Ativo 150 / 150 40% 4 04.05.2027 -
Amadou Onana Aston Villa Ativo 160 / 153 40% 5 03.05.2027 -
Emanuel Emegha Chelsea Ativo 143 / 140 40% 2 01.05.2027 -
Lewis Hall Newcastle United Ativo 152 / 150 40% 2 28.04.2027 -
Yehor Yarmoliuk Brentford Ativo 144 / 148 40% 3 23.04.2027 -
Nathan Collins Brentford Ativo 147 / 144 40% 2 23.04.2027 -
Moisés Caicedo Chelsea Ativo 173 / 167 40% 3 21.04.2027 -
Duk Atlas Ativo 114 / 116 40% 3 19.04.2027 -
Abel Ruiz Girona Ativo 143 / 142 40% 1 19.04.2027 -
Sergio Gómez Real Sociedad Ativo 143 / 139 40% 3 17.04.2027 -
Georginio Rutter Brighton Ativo 148 / 147 40% 3 13.04.2027 -
Matthijs de Ligt Manchester United Ativo 156 / 162 40% 1 13.04.2027 -
Maxence Lacroix Chelsea Ativo 147 / 150 40% 2 12.04.2027 -
João Pedro Chelsea Ativo 151 / 152 40% 5 11.04.2027 -
Tino Livramento Newcastle United Ativo 156 / 161 40% 3 10.04.2027 -
José Ángel Carmona Sevilla Ativo 150 / 147 40% 1 07.04.2027 -
Ivo Mammini Beitar Jerusalem Ativo 120 / 116 40% 3 04.04.2027 -
Rodrigo Muniz Fulham Ativo 137 / 143 40% 2 02.04.2027 -
Lucas Varaldo Morelia Ativo 110 / 116 40% 2 01.04.2027 -
Aaron Hickey Brentford Ativo 144 / 148 40% 1 01.04.2027 -
Ryan Sessegnon Fulham Ativo 149 / 143 40% 1 31.03.2027 -
Quinten Timber Crystal Palace Ativo 149 / 152 40% 4 29.03.2027 -
André Wolverhampton Ativo 140 / 142 40% 1 29.03.2027 -
Lucien Agoumé Sevilla Ativo 141 / 143 40% 5 26.03.2027 -
Kike Salas Sevilla Ativo 138 / 143 40% 3 25.03.2027 -
Dani Vivian Athletic Bilbao Ativo 150 / 146 40% 2 24.03.2027 -
Rafael Navarro Famalicao Ativo 128 / 126 40% 3 23.03.2027 -
Cristian Uribe Monaco Ativo 148 / 148 40% 7 20.03.2027 -
Justo Giani Umraniyespor Ativo 126 / 123 40% 1 20.03.2027 -
Israel Reyes Toulouse FC Ativo 140 / 137 40% 1 18.03.2027 -
Juanlu Bournemouth Ativo 144 / 152 40% 1 17.03.2027 -
Fran García Betis Ativo 143 / 143 40% 4 11.03.2027 -
Curtis Jones Inter Ativo 153 / 158 40% 1 11.03.2027 Mais informações
Sergi Cardona KAA Gent Ativo 146 / 148 40% 1 03.03.2027 -
Wesley Fofana Chelsea Ativo 165 / 162 40% 1 03.03.2027 -
Jeremie Frimpong Liverpool Ativo 166 / 156 40% 3 26.02.2027 -
Ryan Gravenberch Liverpool Ativo 164 / 158 40% 1 25.02.2027 -
William Saliba Arsenal Ativo 178 / 173 40% 1 24.02.2027 -
Sven Botman Newcastle United Ativo 158 / 158 40% 1 21.02.2027 -
Marc Pubill Atlético Madrid Ativo 147 / 148 40% 1 16.02.2027 -
Jurriën Timber Arsenal Ativo 165 / 164 40% 3 05.02.2027 -
Ramón Terrats Getafe Ativo 138 / 136 40% 1 02.02.2027 -
Vitinha Paris Saint-Germain Ativo 182 / 179 40% 1 02.02.2027 -
Joaquin Seys Club Brugge Ativo 132 / 130 40% 2 31.01.2027 -
Breno Bidon Corinthians Ativo 127 / 131 40% 1 30.01.2027 -
Simphiwe Selepe Orlando Pirates Ativo 111 / 115 40% 3 29.01.2027 -
Cheveyo Tsawa Club Brugge Ativo 119 / 122 40% 2 29.01.2027 -
Lucas Høgsberg RC Strasbourg Ativo 135 / 140 40% 2 29.01.2027 -
Santiago Fernández Talleres Ativo 123 / 124 40% 2 27.01.2027 -
Malick Fofana Sunderland Ativo 138 / 148 40% 1 18.01.2027 -
Manu Rodríguez Gijón Ativo 97 / 105 40% 1 18.01.2027 -
Cam Bragg West Ham United Ativo 116 / 121 40% 1 07.01.2027 -
Omar Campos Cruz Azul Ativo 135 / 122 40% 1 05.01.2027 -
Juan Pablo Gallego Fehervar Ativo 116 / 112 40% 1 31.12.2026 -
Nico O'Reilly Manchester City Ativo 154 / 158 40% 4 30.12.2026 -
Kobbie Mainoo Manchester United Ativo 146 / 153 40% 13 28.12.2026 -
Lucas Bergvall Tottenham Ativo 146 / 151 40% 3 27.12.2026 -
Kees Smit AZ Ativo 143 / 148 40% 1 25.12.2026 -
Givairo Read Feyenoord Ativo 143 / 146 40% 3 22.12.2026 -
James Bacca La Equidad Ativo 123 / 129 40% 6 21.12.2026 -
Yussif Saidu Zaragoza Ativo 115 / 123 40% 1 17.12.2026 -
Caleb Yirenkyi Coventry City Ativo 139 / 144 40% 5 13.12.2026 -
James Dornelly Peterborough United Ativo 98 / 109 40% 2 13.12.2026 -
Alexis Vega Feyenoord Ativo 148 / 146 40% 2 11.12.2026 -
Matheus Cunha Manchester United Ativo 163 / 158 40% 1 11.12.2026 -
Ian Garguez Palestino Ativo 110 / 112 40% 5 04.12.2026 -
Mathias De Amorim Famalicao Ativo 126 / 137 40% 1 03.12.2026 -
Alan Forneris Racing Club Ativo 114 / 121 40% 3 02.12.2026 -
Mikel Jauregizar Athletic Bilbao Ativo 153 / 154 40% 1 01.12.2026 -
Kyriani Sabbe Club Brugge Ativo 121 / 124 40% 1 25.11.2026 -
Gabriel Brazão Santos Ativo 131 / 135 40% 1 25.11.2026 -
Agustín Medina Lanús Ativo 112 / 123 40% 4 23.11.2026 -
Jonmi Magunagoitia Eibar Ativo 118 / 125 40% 1 23.11.2026 -
Hugo Souza Corinthians Ativo 136 / 137 40% 1 23.11.2026 -
Léyder Morán Once Caldas Ativo 106 / 111 40% 1 20.11.2026 -
Pedro Bravo FC Midtjylland Ativo 113 / 131 40% 1 17.11.2026 -
Raphinha Barcelona Ativo 174 / 172 40% 3 11.11.2026 -
Aurélien Tchouaméni Real Madrid Ativo 170 / 167 40% 2 11.11.2026 -
Jude Bellingham Real Madrid Ativo 171 / 174 40% 1 11.11.2026 -
Antoine Semenyo Manchester City Ativo 161 / 156 40% 2 10.11.2026 -
Gabriel Martinelli Arsenal Ativo 167 / 158 40% 1 10.11.2026 -
Dani Ceballos RC Lens Ativo 137 / 139 40% 1 06.11.2026 -
Frenkie de Jong Barcelona Ativo 163 / 168 40% 1 06.11.2026 -
Nahuel Arias San Lorenzo Ativo 112 / 124 40% 2 05.11.2026 -
Facundo Di Biasi Gimnasia La Plata Ativo 116 / 122 40% 2 29.10.2026 -
Morrison Agyemang Charlotte Football Club Ativo 110 / 126 40% 1 23.10.2026 -
Juan Fernándes Pinto Almagro Ativo 96 / 109 40% 3 21.10.2026 -
Álex Baena Atlético Madrid Ativo 161 / 158 40% 3 08.10.2026 -
Rodrygo Real Madrid Ativo 160 / 165 40% 1 08.10.2026 -
Ezequiel Burdin Defensa y Justicia Ativo 108 / 114 40% 1 06.10.2026 -
Alejandro Grimaldo Atlético Madrid Ativo 157 / 160 40% 2 02.10.2026 -
Federico Valverde Real Madrid Ativo 175 / 177 40% 1 30.09.2026 -
Pedri Barcelona Ativo 180 / 177 40% 1 28.09.2026 -
Ignacio Ovando Rosario Central Ativo 104 / 113 40% 1 20.09.2026 -
Phil Foden Manchester City Ativo 170 / 172 40% 1 13.09.2026 -
Lucas Quintana Cerro Porteno Ativo 106 / 114 40% 1 06.09.2026 -
João Neves Paris Saint-Germain Ativo 159 / 167 40% 1 02.09.2026 -
Eddie Nketiah Crystal Palace Ativo 139 / 142 40% 1 26.08.2026 -
Kevin Schade Chelsea Ativo 148 / 151 40% 1 26.08.2026 -
Ousmane Dembélé Paris Saint-Germain Ativo 180 / 185 40% 1 02.08.2026 -
Trent Alexander-Arnold Real Madrid Ativo 154 / 163 40% 1 02.08.2026 -